sensor_id;sensor_type;location;lat;lon;timestamp;P1;durP1;ratioP1;P2;durP2;ratioP2
5458;SDS011;2752;49.992;8.422;2023-10-13T00:01:20;8.00;;;3.20;;
5458;SDS011;2752;49.992;8.422;2023-10-13T00:03:47;8.90;;;3.87;;
5458;SDS011;2752;49.992;8.422;2023-10-13T00:06:16;14.07;;;3.63;;
5458;SDS011;2752;49.992;8.422;2023-10-13T00:08:43;10.13;;;4.10;;
5458;SDS011;2752;49.992;8.422;2023-10-13T00:11:11;7.47;;;3.53;;
5458;SDS011;2752;49.992;8.422;2023-10-13T00:13:38;8.07;;;3.90;;
5458;SDS011;2752;49.992;8.422;2023-10-13T00:16:16;7.53;;;3.50;;
5458;SDS011;2752;49.992;8.422;2023-10-13T00:18:46;6.17;;;3.37;;
5458;SDS011;2752;49.992;8.422;2023-10-13T00:21:13;16.63;;;4.50;;
5458;SDS011;2752;49.992;8.422;2023-10-13T00:23:45;6.20;;;3.80;;
5458;SDS011;2752;49.992;8.422;2023-10-13T00:26:18;11.97;;;4.07;;
5458;SDS011;2752;49.992;8.422;2023-10-13T00:28:49;8.80;;;3.77;;
5458;SDS011;2752;49.992;8.422;2023-10-13T00:31:25;13.40;;;3.60;;
5458;SDS011;2752;49.992;8.422;2023-10-13T00:33:57;11.43;;;3.90;;
5458;SDS011;2752;49.992;8.422;2023-10-13T00:36:34;6.40;;;3.30;;
5458;SDS011;2752;49.992;8.422;2023-10-13T00:39:02;6.90;;;3.73;;
5458;SDS011;2752;49.992;8.422;2023-10-13T00:41:31;8.27;;;3.93;;
5458;SDS011;2752;49.992;8.422;2023-10-13T00:44:15;7.37;;;3.70;;
5458;SDS011;2752;49.992;8.422;2023-10-13T00:46:44;11.53;;;4.03;;
5458;SDS011;2752;49.992;8.422;2023-10-13T00:49:10;13.03;;;4.77;;
5458;SDS011;2752;49.992;8.422;2023-10-13T00:51:40;6.70;;;4.00;;
5458;SDS011;2752;49.992;8.422;2023-10-13T00:54:12;7.47;;;4.40;;
5458;SDS011;2752;49.992;8.422;2023-10-13T00:56:41;10.00;;;4.17;;
5458;SDS011;2752;49.992;8.422;2023-10-13T00:59:12;10.60;;;4.47;;
5458;SDS011;2752;49.992;8.422;2023-10-13T01:01:39;8.17;;;4.27;;
5458;SDS011;2752;49.992;8.422;2023-10-13T01:04:09;9.47;;;3.80;;
5458;SDS011;2752;49.992;8.422;2023-10-13T01:06:37;8.57;;;4.17;;
5458;SDS011;2752;49.992;8.422;2023-10-13T01:09:04;8.07;;;3.47;;
5458;SDS011;2752;49.992;8.422;2023-10-13T01:11:38;5.47;;;3.70;;
5458;SDS011;2752;49.992;8.422;2023-10-13T01:14:04;9.07;;;4.10;;
5458;SDS011;2752;49.992;8.422;2023-10-13T01:16:31;7.13;;;3.50;;
5458;SDS011;2752;49.992;8.422;2023-10-13T01:18:57;7.77;;;4.37;;
5458;SDS011;2752;49.992;8.422;2023-10-13T01:21:31;14.57;;;5.00;;
5458;SDS011;2752;49.992;8.422;2023-10-13T01:23:59;6.43;;;3.70;;
5458;SDS011;2752;49.992;8.422;2023-10-13T01:26:26;5.83;;;3.60;;
5458;SDS011;2752;49.992;8.422;2023-10-13T01:28:56;5.07;;;3.17;;
5458;SDS011;2752;49.992;8.422;2023-10-13T01:31:24;5.90;;;4.27;;
5458;SDS011;2752;49.992;8.422;2023-10-13T01:33:52;6.87;;;4.07;;
5458;SDS011;2752;49.992;8.422;2023-10-13T01:36:20;6.80;;;3.50;;
5458;SDS011;2752;49.992;8.422;2023-10-13T01:38:46;11.07;;;4.07;;
5458;SDS011;2752;49.992;8.422;2023-10-13T01:41:15;8.40;;;4.43;;
5458;SDS011;2752;49.992;8.422;2023-10-13T01:43:41;7.40;;;4.23;;
5458;SDS011;2752;49.992;8.422;2023-10-13T01:46:09;12.03;;;5.27;;
5458;SDS011;2752;49.992;8.422;2023-10-13T01:48:38;8.87;;;4.97;;
5458;SDS011;2752;49.992;8.422;2023-10-13T01:51:05;7.00;;;4.17;;
5458;SDS011;2752;49.992;8.422;2023-10-13T01:53:34;13.73;;;5.00;;
5458;SDS011;2752;49.992;8.422;2023-10-13T01:56:02;11.67;;;5.00;;
5458;SDS011;2752;49.992;8.422;2023-10-13T01:58:32;9.33;;;4.77;;
5458;SDS011;2752;49.992;8.422;2023-10-13T02:00:59;14.50;;;4.70;;
5458;SDS011;2752;49.992;8.422;2023-10-13T02:03:26;14.23;;;5.30;;
5458;SDS011;2752;49.992;8.422;2023-10-13T02:05:54;6.20;;;4.20;;
5458;SDS011;2752;49.992;8.422;2023-10-13T02:08:22;10.23;;;4.97;;
5458;SDS011;2752;49.992;8.422;2023-10-13T02:10:50;9.37;;;4.00;;
5458;SDS011;2752;49.992;8.422;2023-10-13T02:13:16;12.93;;;4.67;;
5458;SDS011;2752;49.992;8.422;2023-10-13T02:15:45;8.50;;;4.60;;
5458;SDS011;2752;49.992;8.422;2023-10-13T02:18:13;10.50;;;4.80;;
5458;SDS011;2752;49.992;8.422;2023-10-13T02:20:45;10.00;;;5.07;;
5458;SDS011;2752;49.992;8.422;2023-10-13T02:23:11;6.00;;;4.03;;
5458;SDS011;2752;49.992;8.422;2023-10-13T02:25:39;11.50;;;4.73;;
5458;SDS011;2752;49.992;8.422;2023-10-13T02:28:08;9.93;;;4.80;;
5458;SDS011;2752;49.992;8.422;2023-10-13T02:30:38;8.90;;;4.80;;
5458;SDS011;2752;49.992;8.422;2023-10-13T02:33:06;6.80;;;4.33;;
5458;SDS011;2752;49.992;8.422;2023-10-13T02:35:35;9.57;;;4.57;;
5458;SDS011;2752;49.992;8.422;2023-10-13T02:38:06;12.67;;;5.13;;
5458;SDS011;2752;49.992;8.422;2023-10-13T02:40:36;9.17;;;5.00;;
5458;SDS011;2752;49.992;8.422;2023-10-13T02:43:03;6.03;;;4.00;;
5458;SDS011;2752;49.992;8.422;2023-10-13T02:45:31;10.73;;;4.83;;
5458;SDS011;2752;49.992;8.422;2023-10-13T02:47:57;6.50;;;3.70;;
5458;SDS011;2752;49.992;8.422;2023-10-13T02:50:40;10.73;;;4.77;;
5458;SDS011;2752;49.992;8.422;2023-10-13T02:53:10;7.30;;;4.00;;
5458;SDS011;2752;49.992;8.422;2023-10-13T02:55:52;7.47;;;4.60;;
5458;SDS011;2752;49.992;8.422;2023-10-13T02:58:20;8.73;;;4.10;;
5458;SDS011;2752;49.992;8.422;2023-10-13T03:00:47;7.53;;;3.83;;
5458;SDS011;2752;49.992;8.422;2023-10-13T03:03:14;8.10;;;4.33;;
5458;SDS011;2752;49.992;8.422;2023-10-13T03:05:44;7.33;;;4.17;;
5458;SDS011;2752;49.992;8.422;2023-10-13T03:08:10;11.90;;;5.70;;
5458;SDS011;2752;49.992;8.422;2023-10-13T03:10:42;8.27;;;4.57;;
5458;SDS011;2752;49.992;8.422;2023-10-13T03:13:14;8.70;;;4.90;;
5458;SDS011;2752;49.992;8.422;2023-10-13T03:15:41;14.60;;;3.90;;
5458;SDS011;2752;49.992;8.422;2023-10-13T03:18:12;9.60;;;4.97;;
5458;SDS011;2752;49.992;8.422;2023-10-13T03:20:44;10.20;;;4.47;;
5458;SDS011;2752;49.992;8.422;2023-10-13T03:23:15;8.77;;;4.03;;
5458;SDS011;2752;49.992;8.422;2023-10-13T03:25:41;6.87;;;3.97;;
5458;SDS011;2752;49.992;8.422;2023-10-13T03:28:08;8.27;;;5.33;;
5458;SDS011;2752;49.992;8.422;2023-10-13T03:30:39;13.17;;;4.07;;
5458;SDS011;2752;49.992;8.422;2023-10-13T03:33:07;10.43;;;4.63;;
5458;SDS011;2752;49.992;8.422;2023-10-13T03:35:36;10.50;;;5.23;;
5458;SDS011;2752;49.992;8.422;2023-10-13T03:38:07;11.70;;;4.97;;
5458;SDS011;2752;49.992;8.422;2023-10-13T03:40:41;13.27;;;4.93;;
5458;SDS011;2752;49.992;8.422;2023-10-13T03:43:13;8.10;;;4.30;;
5458;SDS011;2752;49.992;8.422;2023-10-13T03:45:42;9.37;;;4.30;;
5458;SDS011;2752;49.992;8.422;2023-10-13T03:48:12;12.37;;;4.80;;
5458;SDS011;2752;49.992;8.422;2023-10-13T03:50:53;11.13;;;3.90;;
5458;SDS011;2752;49.992;8.422;2023-10-13T03:53:29;11.20;;;5.00;;
5458;SDS011;2752;49.992;8.422;2023-10-13T03:55:59;13.83;;;4.30;;
5458;SDS011;2752;49.992;8.422;2023-10-13T03:58:37;8.90;;;4.23;;
5458;SDS011;2752;49.992;8.422;2023-10-13T04:01:07;13.13;;;4.27;;
5458;SDS011;2752;49.992;8.422;2023-10-13T04:03:37;8.43;;;4.30;;
5458;SDS011;2752;49.992;8.422;2023-10-13T04:06:08;15.83;;;5.70;;
5458;SDS011;2752;49.992;8.422;2023-10-13T04:08:43;9.30;;;4.07;;
5458;SDS011;2752;49.992;8.422;2023-10-13T04:11:35;8.40;;;4.70;;
5458;SDS011;2752;49.992;8.422;2023-10-13T04:14:27;10.43;;;4.97;;
5458;SDS011;2752;49.992;8.422;2023-10-13T04:17:08;10.30;;;4.87;;
5458;SDS011;2752;49.992;8.422;2023-10-13T04:19:39;13.83;;;4.53;;
5458;SDS011;2752;49.992;8.422;2023-10-13T04:22:26;11.80;;;5.27;;
5458;SDS011;2752;49.992;8.422;2023-10-13T04:25:15;13.77;;;4.43;;
5458;SDS011;2752;49.992;8.422;2023-10-13T04:28:03;9.83;;;4.30;;
5458;SDS011;2752;49.992;8.422;2023-10-13T04:30:59;9.07;;;4.27;;
5458;SDS011;2752;49.992;8.422;2023-10-13T04:33:37;16.63;;;5.20;;
5458;SDS011;2752;49.992;8.422;2023-10-13T04:36:16;10.33;;;4.80;;
5458;SDS011;2752;49.992;8.422;2023-10-13T04:39:01;8.70;;;4.93;;
5458;SDS011;2752;49.992;8.422;2023-10-13T04:41:36;7.10;;;4.30;;
5458;SDS011;2752;49.992;8.422;2023-10-13T04:44:04;9.30;;;4.10;;
5458;SDS011;2752;49.992;8.422;2023-10-13T04:46:51;9.97;;;4.13;;
5458;SDS011;2752;49.992;8.422;2023-10-13T04:49:34;8.83;;;4.80;;
5458;SDS011;2752;49.992;8.422;2023-10-13T04:52:14;8.70;;;4.67;;
5458;SDS011;2752;49.992;8.422;2023-10-13T04:55:03;11.87;;;5.40;;
5458;SDS011;2752;49.992;8.422;2023-10-13T04:57:43;9.97;;;4.30;;
5458;SDS011;2752;49.992;8.422;2023-10-13T05:00:18;6.27;;;3.83;;
5458;SDS011;2752;49.992;8.422;2023-10-13T05:03:03;7.07;;;3.10;;
5458;SDS011;2752;49.992;8.422;2023-10-13T05:05:48;11.83;;;4.00;;
5458;SDS011;2752;49.992;8.422;2023-10-13T05:08:32;8.17;;;3.77;;
5458;SDS011;2752;49.992;8.422;2023-10-13T05:11:17;7.60;;;4.20;;
5458;SDS011;2752;49.992;8.422;2023-10-13T05:14:03;7.40;;;3.60;;
5458;SDS011;2752;49.992;8.422;2023-10-13T05:16:48;14.90;;;4.00;;
5458;SDS011;2752;49.992;8.422;2023-10-13T05:19:32;9.23;;;4.00;;
5458;SDS011;2752;49.992;8.422;2023-10-13T05:22:17;8.63;;;4.30;;
5458;SDS011;2752;49.992;8.422;2023-10-13T05:25:01;8.90;;;4.17;;
5458;SDS011;2752;49.992;8.422;2023-10-13T05:27:46;9.57;;;3.90;;
5458;SDS011;2752;49.992;8.422;2023-10-13T05:30:33;9.10;;;4.57;;
5458;SDS011;2752;49.992;8.422;2023-10-13T05:33:17;9.43;;;3.60;;
5458;SDS011;2752;49.992;8.422;2023-10-13T05:36:02;9.20;;;3.50;;
5458;SDS011;2752;49.992;8.422;2023-10-13T05:38:47;9.20;;;4.40;;
5458;SDS011;2752;49.992;8.422;2023-10-13T05:41:31;10.07;;;5.10;;
5458;SDS011;2752;49.992;8.422;2023-10-13T05:44:16;8.23;;;4.70;;
5458;SDS011;2752;49.992;8.422;2023-10-13T05:47:02;8.87;;;4.10;;
5458;SDS011;2752;49.992;8.422;2023-10-13T05:49:43;8.70;;;4.93;;
5458;SDS011;2752;49.992;8.422;2023-10-13T05:52:18;14.67;;;4.60;;
5458;SDS011;2752;49.992;8.422;2023-10-13T05:54:45;9.77;;;4.40;;
5458;SDS011;2752;49.992;8.422;2023-10-13T05:57:29;8.37;;;3.20;;
5458;SDS011;2752;49.992;8.422;2023-10-13T06:00:14;9.13;;;4.77;;
5458;SDS011;2752;49.992;8.422;2023-10-13T06:03:00;7.30;;;4.73;;
5458;SDS011;2752;49.992;8.422;2023-10-13T06:05:45;8.33;;;4.47;;
5458;SDS011;2752;49.992;8.422;2023-10-13T06:08:29;12.50;;;5.83;;
5458;SDS011;2752;49.992;8.422;2023-10-13T06:11:14;9.20;;;4.90;;
5458;SDS011;2752;49.992;8.422;2023-10-13T06:13:59;10.53;;;4.83;;
5458;SDS011;2752;49.992;8.422;2023-10-13T06:16:43;14.90;;;5.30;;
5458;SDS011;2752;49.992;8.422;2023-10-13T06:19:29;10.40;;;4.80;;
5458;SDS011;2752;49.992;8.422;2023-10-13T06:22:14;18.53;;;5.03;;
5458;SDS011;2752;49.992;8.422;2023-10-13T06:24:58;10.53;;;4.70;;
5458;SDS011;2752;49.992;8.422;2023-10-13T06:27:43;7.73;;;4.10;;
5458;SDS011;2752;49.992;8.422;2023-10-13T06:30:27;11.17;;;4.10;;
5458;SDS011;2752;49.992;8.422;2023-10-13T06:32:54;8.70;;;4.73;;
5458;SDS011;2752;49.992;8.422;2023-10-13T06:35:23;10.27;;;5.03;;
5458;SDS011;2752;49.992;8.422;2023-10-13T06:37:50;9.67;;;5.33;;
5458;SDS011;2752;49.992;8.422;2023-10-13T06:40:17;14.80;;;5.30;;
5458;SDS011;2752;49.992;8.422;2023-10-13T06:42:58;12.00;;;5.50;;
5458;SDS011;2752;49.992;8.422;2023-10-13T06:45:37;8.10;;;4.30;;
5458;SDS011;2752;49.992;8.422;2023-10-13T06:48:05;11.17;;;4.90;;
5458;SDS011;2752;49.992;8.422;2023-10-13T06:50:37;14.23;;;4.67;;
5458;SDS011;2752;49.992;8.422;2023-10-13T06:53:06;9.87;;;4.77;;
5458;SDS011;2752;49.992;8.422;2023-10-13T06:55:37;12.30;;;4.90;;
5458;SDS011;2752;49.992;8.422;2023-10-13T06:58:05;9.77;;;4.50;;
5458;SDS011;2752;49.992;8.422;2023-10-13T07:00:32;10.03;;;4.67;;
5458;SDS011;2752;49.992;8.422;2023-10-13T07:02:59;9.00;;;4.67;;
5458;SDS011;2752;49.992;8.422;2023-10-13T07:05:33;10.93;;;4.63;;
5458;SDS011;2752;49.992;8.422;2023-10-13T07:08:02;9.70;;;3.90;;
5458;SDS011;2752;49.992;8.422;2023-10-13T07:10:29;8.83;;;4.37;;
5458;SDS011;2752;49.992;8.422;2023-10-13T07:13:01;10.03;;;4.73;;
5458;SDS011;2752;49.992;8.422;2023-10-13T07:15:34;8.40;;;4.10;;
5458;SDS011;2752;49.992;8.422;2023-10-13T07:18:09;9.60;;;3.73;;
5458;SDS011;2752;49.992;8.422;2023-10-13T07:20:38;6.27;;;3.80;;
5458;SDS011;2752;49.992;8.422;2023-10-13T07:23:10;7.73;;;4.60;;
5458;SDS011;2752;49.992;8.422;2023-10-13T07:25:42;7.53;;;4.43;;
5458;SDS011;2752;49.992;8.422;2023-10-13T07:28:09;9.77;;;4.37;;
5458;SDS011;2752;49.992;8.422;2023-10-13T07:30:38;6.53;;;3.40;;
5458;SDS011;2752;49.992;8.422;2023-10-13T07:33:07;7.07;;;3.70;;
5458;SDS011;2752;49.992;8.422;2023-10-13T07:35:38;12.13;;;4.20;;
5458;SDS011;2752;49.992;8.422;2023-10-13T07:38:06;8.80;;;3.50;;
5458;SDS011;2752;49.992;8.422;2023-10-13T07:40:35;9.00;;;4.83;;
5458;SDS011;2752;49.992;8.422;2023-10-13T07:43:15;8.23;;;4.30;;
5458;SDS011;2752;49.992;8.422;2023-10-13T07:45:46;12.13;;;4.23;;
5458;SDS011;2752;49.992;8.422;2023-10-13T07:48:16;10.53;;;4.00;;
5458;SDS011;2752;49.992;8.422;2023-10-13T07:50:45;6.70;;;3.43;;
5458;SDS011;2752;49.992;8.422;2023-10-13T07:53:13;8.43;;;4.33;;
5458;SDS011;2752;49.992;8.422;2023-10-13T07:55:48;7.47;;;3.83;;
5458;SDS011;2752;49.992;8.422;2023-10-13T07:58:20;7.07;;;3.00;;
5458;SDS011;2752;49.992;8.422;2023-10-13T08:00:49;7.03;;;3.70;;
5458;SDS011;2752;49.992;8.422;2023-10-13T08:03:31;5.27;;;2.93;;
5458;SDS011;2752;49.992;8.422;2023-10-13T08:06:00;10.33;;;4.17;;
5458;SDS011;2752;49.992;8.422;2023-10-13T08:08:31;13.80;;;3.63;;
5458;SDS011;2752;49.992;8.422;2023-10-13T08:11:05;8.50;;;4.37;;
5458;SDS011;2752;49.992;8.422;2023-10-13T08:13:43;8.23;;;3.20;;
5458;SDS011;2752;49.992;8.422;2023-10-13T08:16:12;6.80;;;3.50;;
5458;SDS011;2752;49.992;8.422;2023-10-13T08:18:46;14.80;;;4.37;;
5458;SDS011;2752;49.992;8.422;2023-10-13T08:21:14;9.70;;;4.40;;
5458;SDS011;2752;49.992;8.422;2023-10-13T08:23:43;9.80;;;4.13;;
5458;SDS011;2752;49.992;8.422;2023-10-13T08:26:27;7.33;;;4.27;;
5458;SDS011;2752;49.992;8.422;2023-10-13T08:29:17;12.60;;;4.30;;
5458;SDS011;2752;49.992;8.422;2023-10-13T08:32:01;8.73;;;4.03;;
5458;SDS011;2752;49.992;8.422;2023-10-13T08:34:48;7.00;;;3.50;;
5458;SDS011;2752;49.992;8.422;2023-10-13T08:37:35;6.80;;;3.70;;
5458;SDS011;2752;49.992;8.422;2023-10-13T08:40:12;10.20;;;4.33;;
5458;SDS011;2752;49.992;8.422;2023-10-13T08:43:07;11.67;;;4.40;;
5458;SDS011;2752;49.992;8.422;2023-10-13T08:45:36;7.20;;;3.93;;
5458;SDS011;2752;49.992;8.422;2023-10-13T08:48:23;9.63;;;4.20;;
5458;SDS011;2752;49.992;8.422;2023-10-13T08:50:56;8.80;;;4.17;;
5458;SDS011;2752;49.992;8.422;2023-10-13T08:53:31;7.00;;;3.80;;
5458;SDS011;2752;49.992;8.422;2023-10-13T08:55:59;9.33;;;4.20;;
5458;SDS011;2752;49.992;8.422;2023-10-13T08:58:36;8.63;;;4.73;;
5458;SDS011;2752;49.992;8.422;2023-10-13T09:01:31;6.70;;;3.90;;
5458;SDS011;2752;49.992;8.422;2023-10-13T09:04:00;7.77;;;3.97;;
5458;SDS011;2752;49.992;8.422;2023-10-13T09:06:41;4.73;;;3.13;;
5458;SDS011;2752;49.992;8.422;2023-10-13T09:09:12;5.53;;;3.13;;
5458;SDS011;2752;49.992;8.422;2023-10-13T09:11:51;8.50;;;3.60;;
5458;SDS011;2752;49.992;8.422;2023-10-13T09:14:31;8.80;;;4.13;;
5458;SDS011;2752;49.992;8.422;2023-10-13T09:17:04;12.50;;;4.73;;
5458;SDS011;2752;49.992;8.422;2023-10-13T09:19:42;6.77;;;3.87;;
5458;SDS011;2752;49.992;8.422;2023-10-13T09:22:19;5.17;;;3.00;;
5458;SDS011;2752;49.992;8.422;2023-10-13T09:24:56;7.57;;;4.00;;
5458;SDS011;2752;49.992;8.422;2023-10-13T09:27:25;6.87;;;3.00;;
5458;SDS011;2752;49.992;8.422;2023-10-13T09:29:56;6.50;;;4.10;;
5458;SDS011;2752;49.992;8.422;2023-10-13T09:32:31;11.33;;;4.20;;
5458;SDS011;2752;49.992;8.422;2023-10-13T09:35:10;12.97;;;3.73;;
5458;SDS011;2752;49.992;8.422;2023-10-13T09:37:38;8.07;;;2.90;;
5458;SDS011;2752;49.992;8.422;2023-10-13T09:40:06;7.47;;;3.33;;
5458;SDS011;2752;49.992;8.422;2023-10-13T09:42:50;7.63;;;3.70;;
5458;SDS011;2752;49.992;8.422;2023-10-13T09:45:18;8.67;;;3.07;;
5458;SDS011;2752;49.992;8.422;2023-10-13T09:47:52;6.20;;;3.53;;
5458;SDS011;2752;49.992;8.422;2023-10-13T09:50:22;14.10;;;4.30;;
5458;SDS011;2752;49.992;8.422;2023-10-13T09:52:49;7.90;;;4.23;;
5458;SDS011;2752;49.992;8.422;2023-10-13T09:55:19;7.83;;;4.17;;
5458;SDS011;2752;49.992;8.422;2023-10-13T09:57:49;6.40;;;3.50;;
5458;SDS011;2752;49.992;8.422;2023-10-13T10:00:23;11.20;;;3.70;;
5458;SDS011;2752;49.992;8.422;2023-10-13T10:03:09;15.93;;;3.40;;
5458;SDS011;2752;49.992;8.422;2023-10-13T10:06:04;7.10;;;3.50;;
5458;SDS011;2752;49.992;8.422;2023-10-13T10:08:38;9.00;;;3.70;;
5458;SDS011;2752;49.992;8.422;2023-10-13T10:11:19;6.97;;;3.60;;
5458;SDS011;2752;49.992;8.422;2023-10-13T10:13:52;4.83;;;2.70;;
5458;SDS011;2752;49.992;8.422;2023-10-13T10:16:27;9.80;;;4.50;;
5458;SDS011;2752;49.992;8.422;2023-10-13T10:19:01;5.17;;;3.13;;
5458;SDS011;2752;49.992;8.422;2023-10-13T10:21:32;7.93;;;3.63;;
5458;SDS011;2752;49.992;8.422;2023-10-13T10:24:00;5.43;;;2.83;;
5458;SDS011;2752;49.992;8.422;2023-10-13T10:26:38;6.60;;;3.53;;
5458;SDS011;2752;49.992;8.422;2023-10-13T10:29:16;6.77;;;3.27;;
5458;SDS011;2752;49.992;8.422;2023-10-13T10:31:45;8.63;;;3.20;;
5458;SDS011;2752;49.992;8.422;2023-10-13T10:34:13;10.60;;;3.60;;
5458;SDS011;2752;49.992;8.422;2023-10-13T10:36:44;4.90;;;2.77;;
5458;SDS011;2752;49.992;8.422;2023-10-13T10:39:13;5.23;;;3.03;;
5458;SDS011;2752;49.992;8.422;2023-10-13T10:41:42;4.10;;;2.80;;
5458;SDS011;2752;49.992;8.422;2023-10-13T10:44:17;5.30;;;2.90;;
5458;SDS011;2752;49.992;8.422;2023-10-13T10:47:08;4.67;;;3.07;;
5458;SDS011;2752;49.992;8.422;2023-10-13T10:49:36;6.50;;;3.20;;
5458;SDS011;2752;49.992;8.422;2023-10-13T10:52:03;4.27;;;2.70;;
5458;SDS011;2752;49.992;8.422;2023-10-13T10:54:39;3.40;;;2.40;;
5458;SDS011;2752;49.992;8.422;2023-10-13T10:57:09;5.17;;;2.90;;
5458;SDS011;2752;49.992;8.422;2023-10-13T10:59:42;5.67;;;3.33;;
5458;SDS011;2752;49.992;8.422;2023-10-13T11:02:11;5.13;;;3.50;;
5458;SDS011;2752;49.992;8.422;2023-10-13T11:04:43;4.60;;;2.87;;
5458;SDS011;2752;49.992;8.422;2023-10-13T11:07:20;5.50;;;3.17;;
5458;SDS011;2752;49.992;8.422;2023-10-13T11:09:48;5.77;;;2.87;;
5458;SDS011;2752;49.992;8.422;2023-10-13T11:12:19;7.37;;;3.67;;
5458;SDS011;2752;49.992;8.422;2023-10-13T11:15:02;11.17;;;4.37;;
5458;SDS011;2752;49.992;8.422;2023-10-13T11:17:31;5.90;;;3.13;;
5458;SDS011;2752;49.992;8.422;2023-10-13T11:20:09;5.10;;;2.93;;
5458;SDS011;2752;49.992;8.422;2023-10-13T11:22:41;7.60;;;3.80;;
5458;SDS011;2752;49.992;8.422;2023-10-13T11:25:19;6.77;;;3.23;;
5458;SDS011;2752;49.992;8.422;2023-10-13T11:27:47;4.40;;;2.80;;
5458;SDS011;2752;49.992;8.422;2023-10-13T11:30:25;5.43;;;3.07;;
5458;SDS011;2752;49.992;8.422;2023-10-13T11:33:03;4.73;;;2.50;;
5458;SDS011;2752;49.992;8.422;2023-10-13T11:35:31;7.00;;;3.00;;
5458;SDS011;2752;49.992;8.422;2023-10-13T11:38:12;6.63;;;3.23;;
5458;SDS011;2752;49.992;8.422;2023-10-13T11:40:40;4.70;;;3.47;;
5458;SDS011;2752;49.992;8.422;2023-10-13T11:43:31;8.40;;;3.53;;
5458;SDS011;2752;49.992;8.422;2023-10-13T11:46:05;4.40;;;2.53;;
5458;SDS011;2752;49.992;8.422;2023-10-13T11:48:41;3.53;;;2.77;;
5458;SDS011;2752;49.992;8.422;2023-10-13T11:51:08;4.10;;;2.70;;
5458;SDS011;2752;49.992;8.422;2023-10-13T11:53:42;4.30;;;2.53;;
5458;SDS011;2752;49.992;8.422;2023-10-13T11:56:09;5.13;;;3.20;;
5458;SDS011;2752;49.992;8.422;2023-10-13T11:58:36;6.10;;;3.07;;
5458;SDS011;2752;49.992;8.422;2023-10-13T12:01:04;10.93;;;3.50;;
5458;SDS011;2752;49.992;8.422;2023-10-13T12:03:47;8.90;;;3.40;;
5458;SDS011;2752;49.992;8.422;2023-10-13T12:06:32;6.77;;;3.03;;
5458;SDS011;2752;49.992;8.422;2023-10-13T12:09:11;7.37;;;3.17;;
5458;SDS011;2752;49.992;8.422;2023-10-13T12:11:57;5.63;;;3.37;;
5458;SDS011;2752;49.992;8.422;2023-10-13T12:14:26;4.43;;;2.90;;
5458;SDS011;2752;49.992;8.422;2023-10-13T12:16:54;4.50;;;3.17;;
5458;SDS011;2752;49.992;8.422;2023-10-13T12:19:30;3.30;;;2.23;;
5458;SDS011;2752;49.992;8.422;2023-10-13T12:21:59;4.80;;;3.17;;
5458;SDS011;2752;49.992;8.422;2023-10-13T12:24:30;7.50;;;3.63;;
5458;SDS011;2752;49.992;8.422;2023-10-13T12:27:07;6.10;;;3.17;;
5458;SDS011;2752;49.992;8.422;2023-10-13T12:29:44;4.23;;;2.60;;
5458;SDS011;2752;49.992;8.422;2023-10-13T12:32:12;5.97;;;2.73;;
5458;SDS011;2752;49.992;8.422;2023-10-13T12:34:41;5.37;;;3.10;;
5458;SDS011;2752;49.992;8.422;2023-10-13T12:37:25;4.97;;;2.73;;
5458;SDS011;2752;49.992;8.422;2023-10-13T12:40:15;5.03;;;2.57;;
5458;SDS011;2752;49.992;8.422;2023-10-13T12:43:00;4.73;;;2.80;;
5458;SDS011;2752;49.992;8.422;2023-10-13T12:45:45;9.53;;;3.20;;
5458;SDS011;2752;49.992;8.422;2023-10-13T12:48:30;5.83;;;3.03;;
5458;SDS011;2752;49.992;8.422;2023-10-13T12:51:16;5.43;;;2.77;;
5458;SDS011;2752;49.992;8.422;2023-10-13T12:53:46;4.07;;;2.53;;
5458;SDS011;2752;49.992;8.422;2023-10-13T12:56:14;3.57;;;2.40;;
5458;SDS011;2752;49.992;8.422;2023-10-13T12:58:41;4.40;;;2.93;;
5458;SDS011;2752;49.992;8.422;2023-10-13T13:01:16;5.30;;;2.80;;
5458;SDS011;2752;49.992;8.422;2023-10-13T13:03:45;7.57;;;3.37;;
5458;SDS011;2752;49.992;8.422;2023-10-13T13:06:17;4.53;;;3.10;;
5458;SDS011;2752;49.992;8.422;2023-10-13T13:08:49;6.10;;;2.60;;
5458;SDS011;2752;49.992;8.422;2023-10-13T13:11:16;9.80;;;3.40;;
5458;SDS011;2752;49.992;8.422;2023-10-13T13:13:44;5.40;;;2.60;;
5458;SDS011;2752;49.992;8.422;2023-10-13T13:16:11;3.57;;;2.50;;
5458;SDS011;2752;49.992;8.422;2023-10-13T13:18:38;5.83;;;2.50;;
5458;SDS011;2752;49.992;8.422;2023-10-13T13:21:05;3.37;;;2.33;;
5458;SDS011;2752;49.992;8.422;2023-10-13T13:23:38;3.30;;;2.50;;
5458;SDS011;2752;49.992;8.422;2023-10-13T13:26:05;6.27;;;3.10;;
5458;SDS011;2752;49.992;8.422;2023-10-13T13:28:40;9.20;;;2.77;;
5458;SDS011;2752;49.992;8.422;2023-10-13T13:31:07;3.97;;;2.53;;
5458;SDS011;2752;49.992;8.422;2023-10-13T13:33:37;4.33;;;2.27;;
5458;SDS011;2752;49.992;8.422;2023-10-13T13:36:07;4.03;;;2.27;;
5458;SDS011;2752;49.992;8.422;2023-10-13T13:38:40;4.40;;;2.83;;
5458;SDS011;2752;49.992;8.422;2023-10-13T13:41:11;8.10;;;3.13;;
5458;SDS011;2752;49.992;8.422;2023-10-13T13:43:41;4.63;;;2.40;;
5458;SDS011;2752;49.992;8.422;2023-10-13T13:46:15;5.77;;;2.77;;
5458;SDS011;2752;49.992;8.422;2023-10-13T13:48:43;6.27;;;2.50;;
5458;SDS011;2752;49.992;8.422;2023-10-13T13:51:12;6.80;;;3.13;;
5458;SDS011;2752;49.992;8.422;2023-10-13T13:53:41;3.77;;;2.47;;
5458;SDS011;2752;49.992;8.422;2023-10-13T13:56:10;9.57;;;3.13;;
5458;SDS011;2752;49.992;8.422;2023-10-13T13:58:41;4.60;;;2.43;;
5458;SDS011;2752;49.992;8.422;2023-10-13T14:01:08;3.83;;;2.60;;
5458;SDS011;2752;49.992;8.422;2023-10-13T14:03:39;4.60;;;2.47;;
5458;SDS011;2752;49.992;8.422;2023-10-13T14:06:11;5.40;;;2.20;;
5458;SDS011;2752;49.992;8.422;2023-10-13T14:08:44;7.27;;;2.90;;
5458;SDS011;2752;49.992;8.422;2023-10-13T14:11:13;3.77;;;1.90;;
5458;SDS011;2752;49.992;8.422;2023-10-13T14:13:47;9.00;;;3.13;;
5458;SDS011;2752;49.992;8.422;2023-10-13T14:16:13;8.40;;;2.80;;
5458;SDS011;2752;49.992;8.422;2023-10-13T14:18:42;4.83;;;2.30;;
5458;SDS011;2752;49.992;8.422;2023-10-13T14:21:10;4.10;;;2.50;;
5458;SDS011;2752;49.992;8.422;2023-10-13T14:23:41;4.20;;;2.60;;
5458;SDS011;2752;49.992;8.422;2023-10-13T14:26:12;4.43;;;2.17;;
5458;SDS011;2752;49.992;8.422;2023-10-13T14:28:39;3.90;;;2.77;;
5458;SDS011;2752;49.992;8.422;2023-10-13T14:31:17;5.43;;;2.90;;
5458;SDS011;2752;49.992;8.422;2023-10-13T14:33:45;7.00;;;2.70;;
5458;SDS011;2752;49.992;8.422;2023-10-13T14:36:12;3.63;;;2.50;;
5458;SDS011;2752;49.992;8.422;2023-10-13T14:38:44;8.13;;;3.87;;
5458;SDS011;2752;49.992;8.422;2023-10-13T14:41:15;5.13;;;3.80;;
5458;SDS011;2752;49.992;8.422;2023-10-13T14:43:43;6.50;;;2.63;;
5458;SDS011;2752;49.992;8.422;2023-10-13T14:46:12;3.77;;;2.23;;
5458;SDS011;2752;49.992;8.422;2023-10-13T14:48:39;4.27;;;2.67;;
5458;SDS011;2752;49.992;8.422;2023-10-13T14:51:08;3.10;;;2.03;;
5458;SDS011;2752;49.992;8.422;2023-10-13T14:53:37;3.73;;;2.00;;
5458;SDS011;2752;49.992;8.422;2023-10-13T14:56:07;4.27;;;3.03;;
5458;SDS011;2752;49.992;8.422;2023-10-13T14:58:36;7.47;;;2.93;;
5458;SDS011;2752;49.992;8.422;2023-10-13T15:01:09;5.90;;;2.73;;
5458;SDS011;2752;49.992;8.422;2023-10-13T15:03:36;4.70;;;2.67;;
5458;SDS011;2752;49.992;8.422;2023-10-13T15:06:04;5.33;;;2.47;;
5458;SDS011;2752;49.992;8.422;2023-10-13T15:08:31;4.90;;;2.63;;
5458;SDS011;2752;49.992;8.422;2023-10-13T15:10:57;5.90;;;2.57;;
5458;SDS011;2752;49.992;8.422;2023-10-13T15:13:38;4.27;;;1.93;;
5458;SDS011;2752;49.992;8.422;2023-10-13T15:16:12;5.83;;;2.40;;
5458;SDS011;2752;49.992;8.422;2023-10-13T15:18:40;4.90;;;2.77;;
5458;SDS011;2752;49.992;8.422;2023-10-13T15:21:07;3.63;;;2.00;;
5458;SDS011;2752;49.992;8.422;2023-10-13T15:23:34;4.67;;;2.30;;
5458;SDS011;2752;49.992;8.422;2023-10-13T15:26:07;4.23;;;2.30;;
5458;SDS011;2752;49.992;8.422;2023-10-13T15:28:35;8.93;;;2.43;;
5458;SDS011;2752;49.992;8.422;2023-10-13T15:31:04;4.00;;;2.03;;
5458;SDS011;2752;49.992;8.422;2023-10-13T15:33:49;6.70;;;2.70;;
5458;SDS011;2752;49.992;8.422;2023-10-13T15:36:17;3.30;;;1.80;;
5458;SDS011;2752;49.992;8.422;2023-10-13T15:38:45;3.47;;;2.27;;
5458;SDS011;2752;49.992;8.422;2023-10-13T15:41:12;5.33;;;3.07;;
5458;SDS011;2752;49.992;8.422;2023-10-13T15:43:39;3.03;;;1.87;;
5458;SDS011;2752;49.992;8.422;2023-10-13T15:46:16;8.03;;;2.23;;
5458;SDS011;2752;49.992;8.422;2023-10-13T15:48:43;2.90;;;1.77;;
5458;SDS011;2752;49.992;8.422;2023-10-13T15:51:10;4.37;;;2.10;;